sensor_id;sensor_type;location;lat;lon;timestamp;P1;durP1;ratioP1;P2;durP2;ratioP2
52586;SDS011;38480;52.724;6.436;2022-11-15T00:02:13;25.70;;;16.47;;
52586;SDS011;38480;52.724;6.436;2022-11-15T00:04:39;25.83;;;16.73;;
52586;SDS011;38480;52.724;6.436;2022-11-15T00:07:05;26.47;;;16.60;;
52586;SDS011;38480;52.724;6.436;2022-11-15T00:09:31;28.67;;;18.77;;
52586;SDS011;38480;52.724;6.436;2022-11-15T00:11:57;30.03;;;19.30;;
52586;SDS011;38480;52.724;6.436;2022-11-15T00:14:24;28.90;;;19.33;;
52586;SDS011;38480;52.724;6.436;2022-11-15T00:16:49;30.47;;;19.37;;
52586;SDS011;38480;52.724;6.436;2022-11-15T00:19:16;27.23;;;18.10;;
52586;SDS011;38480;52.724;6.436;2022-11-15T00:21:42;29.17;;;19.00;;
52586;SDS011;38480;52.724;6.436;2022-11-15T00:24:08;30.17;;;18.97;;
52586;SDS011;38480;52.724;6.436;2022-11-15T00:26:34;27.50;;;18.07;;
52586;SDS011;38480;52.724;6.436;2022-11-15T00:29:00;27.40;;;16.87;;
52586;SDS011;38480;52.724;6.436;2022-11-15T00:31:26;30.97;;;18.37;;
52586;SDS011;38480;52.724;6.436;2022-11-15T00:33:52;26.67;;;18.10;;
52586;SDS011;38480;52.724;6.436;2022-11-15T00:36:18;29.90;;;18.10;;
52586;SDS011;38480;52.724;6.436;2022-11-15T00:38:44;29.03;;;17.30;;
52586;SDS011;38480;52.724;6.436;2022-11-15T00:41:10;25.87;;;16.73;;
52586;SDS011;38480;52.724;6.436;2022-11-15T00:43:36;25.70;;;17.60;;
52586;SDS011;38480;52.724;6.436;2022-11-15T00:46:04;27.07;;;16.87;;
52586;SDS011;38480;52.724;6.436;2022-11-15T00:48:30;30.37;;;17.83;;
52586;SDS011;38480;52.724;6.436;2022-11-15T00:50:57;31.67;;;18.10;;
52586;SDS011;38480;52.724;6.436;2022-11-15T00:53:23;30.03;;;17.40;;
52586;SDS011;38480;52.724;6.436;2022-11-15T00:55:49;30.03;;;18.80;;
52586;SDS011;38480;52.724;6.436;2022-11-15T00:58:15;32.70;;;20.27;;
52586;SDS011;38480;52.724;6.436;2022-11-15T01:00:41;34.50;;;20.50;;
52586;SDS011;38480;52.724;6.436;2022-11-15T01:03:07;33.77;;;20.43;;
52586;SDS011;38480;52.724;6.436;2022-11-15T01:05:33;32.97;;;19.77;;
52586;SDS011;38480;52.724;6.436;2022-11-15T01:07:59;32.53;;;18.73;;
52586;SDS011;38480;52.724;6.436;2022-11-15T01:10:25;34.67;;;18.57;;
52586;SDS011;38480;52.724;6.436;2022-11-15T01:12:51;32.80;;;18.60;;
52586;SDS011;38480;52.724;6.436;2022-11-15T01:15:17;32.73;;;18.87;;
52586;SDS011;38480;52.724;6.436;2022-11-15T01:17:44;32.30;;;19.27;;
52586;SDS011;38480;52.724;6.436;2022-11-15T01:20:10;36.03;;;19.27;;
52586;SDS011;38480;52.724;6.436;2022-11-15T01:22:36;30.80;;;19.07;;
52586;SDS011;38480;52.724;6.436;2022-11-15T01:25:02;32.37;;;18.83;;
52586;SDS011;38480;52.724;6.436;2022-11-15T01:27:28;34.23;;;19.67;;
52586;SDS011;38480;52.724;6.436;2022-11-15T01:29:54;34.57;;;20.30;;
52586;SDS011;38480;52.724;6.436;2022-11-15T01:32:20;29.17;;;17.97;;
52586;SDS011;38480;52.724;6.436;2022-11-15T01:34:47;31.40;;;18.83;;
52586;SDS011;38480;52.724;6.436;2022-11-15T01:37:13;32.67;;;19.03;;
52586;SDS011;38480;52.724;6.436;2022-11-15T01:39:39;30.20;;;18.30;;
52586;SDS011;38480;52.724;6.436;2022-11-15T01:42:05;35.53;;;19.60;;
52586;SDS011;38480;52.724;6.436;2022-11-15T01:44:37;33.20;;;19.67;;
52586;SDS011;38480;52.724;6.436;2022-11-15T01:47:26;35.27;;;19.63;;
52586;SDS011;38480;52.724;6.436;2022-11-15T01:52:20;36.63;;;20.33;;
52586;SDS011;38480;52.724;6.436;2022-11-15T01:54:48;31.00;;;18.97;;
52586;SDS011;38480;52.724;6.436;2022-11-15T01:57:16;36.73;;;20.30;;
52586;SDS011;38480;52.724;6.436;2022-11-15T01:59:43;34.53;;;20.00;;
52586;SDS011;38480;52.724;6.436;2022-11-15T02:02:10;35.60;;;19.97;;
52586;SDS011;38480;52.724;6.436;2022-11-15T02:04:40;32.07;;;18.57;;
52586;SDS011;38480;52.724;6.436;2022-11-15T02:07:06;37.93;;;20.30;;
52586;SDS011;38480;52.724;6.436;2022-11-15T02:09:35;36.93;;;19.57;;
52586;SDS011;38480;52.724;6.436;2022-11-15T02:12:01;38.93;;;19.13;;
52586;SDS011;38480;52.724;6.436;2022-11-15T02:14:27;33.50;;;18.67;;
52586;SDS011;38480;52.724;6.436;2022-11-15T02:16:59;37.47;;;19.23;;
52586;SDS011;38480;52.724;6.436;2022-11-15T02:22:04;41.20;;;19.60;;
52586;SDS011;38480;52.724;6.436;2022-11-15T02:24:40;38.53;;;19.80;;
52586;SDS011;38480;52.724;6.436;2022-11-15T02:37:47;38.80;;;19.50;;
52586;SDS011;38480;52.724;6.436;2022-11-15T02:40:23;45.70;;;21.90;;
52586;SDS011;38480;52.724;6.436;2022-11-15T02:42:54;46.17;;;23.13;;
52586;SDS011;38480;52.724;6.436;2022-11-15T02:45:41;51.10;;;21.53;;
52586;SDS011;38480;52.724;6.436;2022-11-15T02:48:10;44.93;;;22.97;;
52586;SDS011;38480;52.724;6.436;2022-11-15T02:50:36;51.93;;;22.83;;
52586;SDS011;38480;52.724;6.436;2022-11-15T02:53:03;50.67;;;23.47;;
52586;SDS011;38480;52.724;6.436;2022-11-15T03:00:43;47.77;;;21.90;;
52586;SDS011;38480;52.724;6.436;2022-11-15T03:06:09;53.83;;;23.87;;
52586;SDS011;38480;52.724;6.436;2022-11-15T03:08:41;61.03;;;26.03;;
52586;SDS011;38480;52.724;6.436;2022-11-15T03:11:14;62.97;;;26.13;;
52586;SDS011;38480;52.724;6.436;2022-11-15T03:16:37;61.97;;;29.27;;
52586;SDS011;38480;52.724;6.436;2022-11-15T03:21:33;76.30;;;31.80;;
52586;SDS011;38480;52.724;6.436;2022-11-15T03:24:02;83.80;;;33.50;;
52586;SDS011;38480;52.724;6.436;2022-11-15T03:26:29;79.83;;;34.07;;
52586;SDS011;38480;52.724;6.436;2022-11-15T03:28:57;87.17;;;34.70;;
52586;SDS011;38480;52.724;6.436;2022-11-15T03:31:26;95.07;;;36.50;;
52586;SDS011;38480;52.724;6.436;2022-11-15T03:34:15;97.13;;;36.03;;
52586;SDS011;38480;52.724;6.436;2022-11-15T03:36:45;91.95;;;37.45;;
52586;SDS011;38480;52.724;6.436;2022-11-15T03:39:11;92.77;;;37.53;;
52586;SDS011;38480;52.724;6.436;2022-11-15T03:41:48;88.87;;;36.90;;
52586;SDS011;38480;52.724;6.436;2022-11-15T03:47:16;109.27;;;39.27;;
52586;SDS011;38480;52.724;6.436;2022-11-15T03:49:44;114.40;;;42.40;;
52586;SDS011;38480;52.724;6.436;2022-11-15T03:52:12;107.03;;;41.27;;
52586;SDS011;38480;52.724;6.436;2022-11-15T03:54:47;110.60;;;41.17;;
52586;SDS011;38480;52.724;6.436;2022-11-15T03:57:13;111.13;;;42.23;;
52586;SDS011;38480;52.724;6.436;2022-11-15T03:59:39;119.23;;;42.70;;
52586;SDS011;38480;52.724;6.436;2022-11-15T04:02:05;123.17;;;43.60;;
52586;SDS011;38480;52.724;6.436;2022-11-15T04:04:31;121.43;;;44.30;;
52586;SDS011;38480;52.724;6.436;2022-11-15T04:06:57;133.20;;;44.03;;
52586;SDS011;38480;52.724;6.436;2022-11-15T04:09:23;121.97;;;45.40;;
52586;SDS011;38480;52.724;6.436;2022-11-15T04:11:49;122.70;;;43.70;;
52586;SDS011;38480;52.724;6.436;2022-11-15T04:14:15;122.30;;;45.43;;
52586;SDS011;38480;52.724;6.436;2022-11-15T04:16:41;115.73;;;44.57;;
52586;SDS011;38480;52.724;6.436;2022-11-15T04:19:07;113.10;;;43.30;;
52586;SDS011;38480;52.724;6.436;2022-11-15T04:21:51;107.47;;;43.67;;
52586;SDS011;38480;52.724;6.436;2022-11-15T04:24:36;115.80;;;43.87;;
52586;SDS011;38480;52.724;6.436;2022-11-15T04:27:02;98.57;;;43.13;;
52586;SDS011;38480;52.724;6.436;2022-11-15T04:29:28;104.33;;;43.77;;
52586;SDS011;38480;52.724;6.436;2022-11-15T04:32:04;107.63;;;42.07;;
52586;SDS011;38480;52.724;6.436;2022-11-15T04:34:31;105.27;;;42.27;;
52586;SDS011;38480;52.724;6.436;2022-11-15T04:36:57;104.83;;;41.47;;
52586;SDS011;38480;52.724;6.436;2022-11-15T04:39:40;98.97;;;39.90;;
52586;SDS011;38480;52.724;6.436;2022-11-15T04:42:06;95.03;;;41.00;;
52586;SDS011;38480;52.724;6.436;2022-11-15T04:44:33;98.27;;;41.63;;
52586;SDS011;38480;52.724;6.436;2022-11-15T04:46:59;99.77;;;42.00;;
52586;SDS011;38480;52.724;6.436;2022-11-15T04:49:25;93.17;;;41.60;;
52586;SDS011;38480;52.724;6.436;2022-11-15T04:51:51;100.77;;;43.03;;
52586;SDS011;38480;52.724;6.436;2022-11-15T04:54:17;102.03;;;42.80;;
52586;SDS011;38480;52.724;6.436;2022-11-15T04:56:43;93.33;;;42.07;;
52586;SDS011;38480;52.724;6.436;2022-11-15T04:59:09;110.47;;;42.63;;
52586;SDS011;38480;52.724;6.436;2022-11-15T05:01:35;91.77;;;41.20;;
52586;SDS011;38480;52.724;6.436;2022-11-15T05:04:01;98.33;;;41.30;;
52586;SDS011;38480;52.724;6.436;2022-11-15T05:06:46;92.23;;;41.53;;
52586;SDS011;38480;52.724;6.436;2022-11-15T05:09:12;84.47;;;39.37;;
52586;SDS011;38480;52.724;6.436;2022-11-15T05:11:39;87.83;;;39.97;;
52586;SDS011;38480;52.724;6.436;2022-11-15T05:14:05;83.30;;;41.47;;
52586;SDS011;38480;52.724;6.436;2022-11-15T05:16:31;98.63;;;40.23;;
52586;SDS011;38480;52.724;6.436;2022-11-15T05:18:57;89.33;;;39.80;;
52586;SDS011;38480;52.724;6.436;2022-11-15T05:21:23;77.63;;;36.27;;
52586;SDS011;38480;52.724;6.436;2022-11-15T05:23:49;84.63;;;37.93;;
52586;SDS011;38480;52.724;6.436;2022-11-15T05:26:16;80.07;;;37.67;;
52586;SDS011;38480;52.724;6.436;2022-11-15T05:28:43;79.93;;;39.00;;
52586;SDS011;38480;52.724;6.436;2022-11-15T05:31:11;77.03;;;37.60;;
52586;SDS011;38480;52.724;6.436;2022-11-15T05:33:37;82.97;;;37.43;;
52586;SDS011;38480;52.724;6.436;2022-11-15T05:36:05;95.23;;;40.50;;
52586;SDS011;38480;52.724;6.436;2022-11-15T05:38:33;90.17;;;37.27;;
52586;SDS011;38480;52.724;6.436;2022-11-15T05:40:59;75.13;;;35.77;;
52586;SDS011;38480;52.724;6.436;2022-11-15T05:43:26;72.87;;;37.53;;
52586;SDS011;38480;52.724;6.436;2022-11-15T05:45:52;77.60;;;37.23;;
52586;SDS011;38480;52.724;6.436;2022-11-15T05:48:18;73.03;;;37.30;;
52586;SDS011;38480;52.724;6.436;2022-11-15T05:50:46;74.67;;;35.40;;
52586;SDS011;38480;52.724;6.436;2022-11-15T05:53:13;71.00;;;36.73;;
52586;SDS011;38480;52.724;6.436;2022-11-15T05:55:40;72.07;;;35.63;;
52586;SDS011;38480;52.724;6.436;2022-11-15T05:58:06;71.83;;;34.47;;
52586;SDS011;38480;52.724;6.436;2022-11-15T06:00:32;64.50;;;33.60;;
52586;SDS011;38480;52.724;6.436;2022-11-15T06:02:59;75.50;;;36.37;;
52586;SDS011;38480;52.724;6.436;2022-11-15T06:05:25;76.83;;;35.93;;
52586;SDS011;38480;52.724;6.436;2022-11-15T06:07:51;82.90;;;36.30;;
52586;SDS011;38480;52.724;6.436;2022-11-15T06:10:17;71.97;;;34.50;;
52586;SDS011;38480;52.724;6.436;2022-11-15T06:12:43;64.00;;;32.23;;
52586;SDS011;38480;52.724;6.436;2022-11-15T06:15:09;70.97;;;33.70;;
52586;SDS011;38480;52.724;6.436;2022-11-15T06:17:35;66.33;;;32.97;;
52586;SDS011;38480;52.724;6.436;2022-11-15T06:20:01;61.93;;;31.60;;
52586;SDS011;38480;52.724;6.436;2022-11-15T06:22:28;63.80;;;31.13;;
52586;SDS011;38480;52.724;6.436;2022-11-15T06:24:54;64.77;;;31.73;;
52586;SDS011;38480;52.724;6.436;2022-11-15T06:27:20;62.47;;;32.77;;
52586;SDS011;38480;52.724;6.436;2022-11-15T06:29:46;59.57;;;30.33;;
52586;SDS011;38480;52.724;6.436;2022-11-15T06:32:12;63.63;;;32.10;;
52586;SDS011;38480;52.724;6.436;2022-11-15T06:34:38;55.97;;;30.90;;
52586;SDS011;38480;52.724;6.436;2022-11-15T06:37:04;54.50;;;29.17;;
52586;SDS011;38480;52.724;6.436;2022-11-15T06:39:30;56.33;;;30.00;;
52586;SDS011;38480;52.724;6.436;2022-11-15T06:41:56;55.03;;;30.07;;
52586;SDS011;38480;52.724;6.436;2022-11-15T06:44:22;57.97;;;29.20;;
52586;SDS011;38480;52.724;6.436;2022-11-15T06:46:48;54.07;;;30.57;;
52586;SDS011;38480;52.724;6.436;2022-11-15T06:49:14;53.70;;;29.80;;
52586;SDS011;38480;52.724;6.436;2022-11-15T06:51:40;52.50;;;28.87;;
52586;SDS011;38480;52.724;6.436;2022-11-15T06:54:06;50.30;;;28.13;;
52586;SDS011;38480;52.724;6.436;2022-11-15T06:56:33;47.77;;;27.60;;
52586;SDS011;38480;52.724;6.436;2022-11-15T06:58:59;51.17;;;27.93;;
52586;SDS011;38480;52.724;6.436;2022-11-15T07:01:25;49.50;;;27.03;;
52586;SDS011;38480;52.724;6.436;2022-11-15T07:03:51;53.90;;;26.67;;
52586;SDS011;38480;52.724;6.436;2022-11-15T07:06:17;45.67;;;26.47;;
52586;SDS011;38480;52.724;6.436;2022-11-15T07:08:43;46.93;;;26.27;;
52586;SDS011;38480;52.724;6.436;2022-11-15T07:11:10;48.13;;;26.77;;
52586;SDS011;38480;52.724;6.436;2022-11-15T07:13:36;45.90;;;25.23;;
52586;SDS011;38480;52.724;6.436;2022-11-15T07:16:07;43.10;;;25.10;;
52586;SDS011;38480;52.724;6.436;2022-11-15T07:18:34;41.20;;;24.50;;
52586;SDS011;38480;52.724;6.436;2022-11-15T07:21:02;42.87;;;24.77;;
52586;SDS011;38480;52.724;6.436;2022-11-15T07:23:28;42.00;;;24.93;;
52586;SDS011;38480;52.724;6.436;2022-11-15T07:25:55;42.80;;;26.03;;
52586;SDS011;38480;52.724;6.436;2022-11-15T07:28:22;39.70;;;23.03;;
52586;SDS011;38480;52.724;6.436;2022-11-15T07:30:48;41.47;;;24.03;;
52586;SDS011;38480;52.724;6.436;2022-11-15T07:33:14;40.93;;;23.87;;
52586;SDS011;38480;52.724;6.436;2022-11-15T07:35:40;37.43;;;23.00;;
52586;SDS011;38480;52.724;6.436;2022-11-15T07:38:07;43.07;;;23.77;;
52586;SDS011;38480;52.724;6.436;2022-11-15T07:40:34;36.17;;;22.10;;
52586;SDS011;38480;52.724;6.436;2022-11-15T07:43:00;43.57;;;22.77;;
52586;SDS011;38480;52.724;6.436;2022-11-15T07:45:27;35.57;;;23.27;;
52586;SDS011;38480;52.724;6.436;2022-11-15T07:47:53;33.23;;;22.50;;
52586;SDS011;38480;52.724;6.436;2022-11-15T07:50:21;35.53;;;22.40;;
52586;SDS011;38480;52.724;6.436;2022-11-15T07:52:47;34.33;;;21.63;;
52586;SDS011;38480;52.724;6.436;2022-11-15T07:55:13;36.30;;;22.27;;
52586;SDS011;38480;52.724;6.436;2022-11-15T07:57:39;39.60;;;22.37;;
52586;SDS011;38480;52.724;6.436;2022-11-15T08:00:06;28.73;;;20.40;;
52586;SDS011;38480;52.724;6.436;2022-11-15T08:02:32;36.97;;;22.03;;
52586;SDS011;38480;52.724;6.436;2022-11-15T08:04:58;38.60;;;23.23;;
52586;SDS011;38480;52.724;6.436;2022-11-15T08:07:24;39.40;;;22.23;;
52586;SDS011;38480;52.724;6.436;2022-11-15T08:09:50;37.10;;;22.07;;
52586;SDS011;38480;52.724;6.436;2022-11-15T08:12:16;35.03;;;22.00;;
52586;SDS011;38480;52.724;6.436;2022-11-15T08:14:42;31.83;;;20.80;;
52586;SDS011;38480;52.724;6.436;2022-11-15T08:17:08;37.93;;;21.90;;
52586;SDS011;38480;52.724;6.436;2022-11-15T08:19:34;35.60;;;21.77;;
52586;SDS011;38480;52.724;6.436;2022-11-15T08:22:00;34.37;;;21.30;;
52586;SDS011;38480;52.724;6.436;2022-11-15T08:24:26;35.03;;;21.10;;
52586;SDS011;38480;52.724;6.436;2022-11-15T08:26:52;34.77;;;21.33;;
52586;SDS011;38480;52.724;6.436;2022-11-15T08:29:18;31.60;;;21.00;;
52586;SDS011;38480;52.724;6.436;2022-11-15T08:31:44;36.07;;;21.17;;
52586;SDS011;38480;52.724;6.436;2022-11-15T08:34:11;34.20;;;20.43;;
52586;SDS011;38480;52.724;6.436;2022-11-15T08:36:37;30.53;;;19.40;;
52586;SDS011;38480;52.724;6.436;2022-11-15T08:39:03;34.60;;;20.43;;
52586;SDS011;38480;52.724;6.436;2022-11-15T08:41:31;32.43;;;19.87;;
52586;SDS011;38480;52.724;6.436;2022-11-15T08:43:57;32.10;;;20.57;;
52586;SDS011;38480;52.724;6.436;2022-11-15T08:46:23;33.53;;;19.23;;
52586;SDS011;38480;52.724;6.436;2022-11-15T08:48:49;30.30;;;19.10;;
52586;SDS011;38480;52.724;6.436;2022-11-15T08:51:15;30.07;;;19.87;;
52586;SDS011;38480;52.724;6.436;2022-11-15T08:53:41;34.47;;;20.17;;
52586;SDS011;38480;52.724;6.436;2022-11-15T08:56:08;30.37;;;20.10;;
52586;SDS011;38480;52.724;6.436;2022-11-15T08:58:35;27.50;;;18.07;;
52586;SDS011;38480;52.724;6.436;2022-11-15T09:01:02;29.20;;;19.43;;
52586;SDS011;38480;52.724;6.436;2022-11-15T09:03:28;28.97;;;19.63;;
52586;SDS011;38480;52.724;6.436;2022-11-15T09:05:55;28.33;;;18.37;;
52586;SDS011;38480;52.724;6.436;2022-11-15T09:08:22;25.77;;;18.03;;
52586;SDS011;38480;52.724;6.436;2022-11-15T09:10:48;26.73;;;17.37;;
52586;SDS011;38480;52.724;6.436;2022-11-15T09:13:14;29.57;;;18.40;;
52586;SDS011;38480;52.724;6.436;2022-11-15T09:15:40;30.43;;;18.63;;
52586;SDS011;38480;52.724;6.436;2022-11-15T09:18:06;23.60;;;17.77;;
52586;SDS011;38480;52.724;6.436;2022-11-15T09:20:32;28.43;;;18.37;;
52586;SDS011;38480;52.724;6.436;2022-11-15T09:23:02;27.80;;;18.43;;
52586;SDS011;38480;52.724;6.436;2022-11-15T09:25:28;21.80;;;15.43;;
52586;SDS011;38480;52.724;6.436;2022-11-15T09:27:55;25.43;;;16.33;;
52586;SDS011;38480;52.724;6.436;2022-11-15T09:30:21;24.27;;;15.83;;
52586;SDS011;38480;52.724;6.436;2022-11-15T09:32:48;21.83;;;15.50;;
52586;SDS011;38480;52.724;6.436;2022-11-15T09:35:14;25.17;;;15.63;;
52586;SDS011;38480;52.724;6.436;2022-11-15T09:37:40;23.93;;;14.87;;
52586;SDS011;38480;52.724;6.436;2022-11-15T09:40:08;19.73;;;14.33;;
52586;SDS011;38480;52.724;6.436;2022-11-15T09:50:10;20.70;;;13.70;;
52586;SDS011;38480;52.724;6.436;2022-11-15T09:52:36;19.37;;;13.07;;
52586;SDS011;38480;52.724;6.436;2022-11-15T09:55:03;16.43;;;12.97;;
52586;SDS011;38480;52.724;6.436;2022-11-15T09:57:42;14.20;;;11.03;;
52586;SDS011;38480;52.724;6.436;2022-11-15T10:02:43;14.07;;;10.27;;
52586;SDS011;38480;52.724;6.436;2022-11-15T10:05:14;13.87;;;10.63;;
52586;SDS011;38480;52.724;6.436;2022-11-15T10:12:34;10.27;;;8.90;;
52586;SDS011;38480;52.724;6.436;2022-11-15T10:15:03;12.00;;;9.07;;
52586;SDS011;38480;52.724;6.436;2022-11-15T10:22:48;12.43;;;8.53;;
52586;SDS011;38480;52.724;6.436;2022-11-15T10:25:23;13.30;;;8.97;;
52586;SDS011;38480;52.724;6.436;2022-11-15T10:27:53;8.73;;;5.17;;
52586;SDS011;38480;52.724;6.436;2022-11-15T10:30:20;11.23;;;5.17;;
52586;SDS011;38480;52.724;6.436;2022-11-15T10:32:47;7.50;;;4.83;;
52586;SDS011;38480;52.724;6.436;2022-11-15T10:35:18;9.63;;;4.37;;
52586;SDS011;38480;52.724;6.436;2022-11-15T10:37:45;8.13;;;4.17;;
52586;SDS011;38480;52.724;6.436;2022-11-15T10:40:15;7.20;;;4.37;;
52586;SDS011;38480;52.724;6.436;2022-11-15T10:42:42;6.83;;;4.20;;
52586;SDS011;38480;52.724;6.436;2022-11-15T10:45:30;7.03;;;4.00;;
52586;SDS011;38480;52.724;6.436;2022-11-15T10:50:38;8.60;;;3.80;;
52586;SDS011;38480;52.724;6.436;2022-11-15T10:53:04;7.73;;;3.50;;
52586;SDS011;38480;52.724;6.436;2022-11-15T10:55:38;6.23;;;3.73;;
52586;SDS011;38480;52.724;6.436;2022-11-15T10:58:18;8.10;;;3.50;;
52586;SDS011;38480;52.724;6.436;2022-11-15T11:00:45;7.30;;;3.67;;
52586;SDS011;38480;52.724;6.436;2022-11-15T11:05:50;6.67;;;3.50;;
52586;SDS011;38480;52.724;6.436;2022-11-15T11:08:28;10.13;;;3.47;;
52586;SDS011;38480;52.724;6.436;2022-11-15T11:11:03;6.43;;;3.03;;
52586;SDS011;38480;52.724;6.436;2022-11-15T11:13:31;8.20;;;3.50;;
52586;SDS011;38480;52.724;6.436;2022-11-15T11:19:03;7.50;;;3.33;;
52586;SDS011;38480;52.724;6.436;2022-11-15T11:24:16;6.60;;;3.53;;
52586;SDS011;38480;52.724;6.436;2022-11-15T11:32:03;5.67;;;2.43;;
52586;SDS011;38480;52.724;6.436;2022-11-15T11:37:12;7.27;;;2.27;;
52586;SDS011;38480;52.724;6.436;2022-11-15T11:47:15;5.83;;;2.80;;
52586;SDS011;38480;52.724;6.436;2022-11-15T11:49:45;6.45;;;2.53;;
52586;SDS011;38480;52.724;6.436;2022-11-15T11:52:14;6.97;;;2.20;;
52586;SDS011;38480;52.724;6.436;2022-11-15T11:55:23;5.47;;;2.10;;
52586;SDS011;38480;52.724;6.436;2022-11-15T11:57:34;5.97;;;2.43;;
52586;SDS011;38480;52.724;6.436;2022-11-15T12:00:10;6.43;;;2.23;;
52586;SDS011;38480;52.724;6.436;2022-11-15T12:02:38;7.65;;;1.88;;
52586;SDS011;38480;52.724;6.436;2022-11-15T12:05:10;5.63;;;1.97;;
52586;SDS011;38480;52.724;6.436;2022-11-15T12:07:37;5.93;;;1.75;;
52586;SDS011;38480;52.724;6.436;2022-11-15T12:15:17;8.40;;;2.60;;
52586;SDS011;38480;52.724;6.436;2022-11-15T12:17:43;6.50;;;2.10;;
52586;SDS011;38480;52.724;6.436;2022-11-15T12:20:20;5.67;;;2.00;;
52586;SDS011;38480;52.724;6.436;2022-11-15T12:22:49;3.47;;;2.00;;
52586;SDS011;38480;52.724;6.436;2022-11-15T12:30:54;5.43;;;2.07;;
52586;SDS011;38480;52.724;6.436;2022-11-15T12:36:40;4.77;;;1.70;;
52586;SDS011;38480;52.724;6.436;2022-11-15T12:38:59;6.00;;;2.43;;
52586;SDS011;38480;52.724;6.436;2022-11-15T12:41:29;5.17;;;1.60;;
52586;SDS011;38480;52.724;6.436;2022-11-15T12:43:56;9.17;;;2.80;;
52586;SDS011;38480;52.724;6.436;2022-11-15T12:49:00;4.00;;;1.60;;
52586;SDS011;38480;52.724;6.436;2022-11-15T13:02:20;3.03;;;1.60;;
52586;SDS011;38480;52.724;6.436;2022-11-15T13:04:46;4.17;;;1.83;;
52586;SDS011;38480;52.724;6.436;2022-11-15T13:09:57;6.73;;;1.50;;
52586;SDS011;38480;52.724;6.436;2022-11-15T13:14:58;3.47;;;1.37;;
52586;SDS011;38480;52.724;6.436;2022-11-15T13:17:26;4.13;;;1.20;;
52586;SDS011;38480;52.724;6.436;2022-11-15T13:19:54;2.53;;;1.00;;
52586;SDS011;38480;52.724;6.436;2022-11-15T13:22:23;2.63;;;1.00;;
52586;SDS011;38480;52.724;6.436;2022-11-15T13:25:15;2.63;;;1.10;;
52586;SDS011;38480;52.724;6.436;2022-11-15T13:27:44;3.37;;;0.80;;
52586;SDS011;38480;52.724;6.436;2022-11-15T13:30:15;4.27;;;1.13;;
52586;SDS011;38480;52.724;6.436;2022-11-15T13:32:41;5.17;;;1.20;;
52586;SDS011;38480;52.724;6.436;2022-11-15T13:35:07;1.83;;;1.00;;
52586;SDS011;38480;52.724;6.436;2022-11-15T13:37:33;4.07;;;1.10;;
52586;SDS011;38480;52.724;6.436;2022-11-15T13:42:56;2.90;;;0.73;;
52586;SDS011;38480;52.724;6.436;2022-11-15T13:45:23;7.13;;;1.90;;
52586;SDS011;38480;52.724;6.436;2022-11-15T13:47:56;3.83;;;0.90;;
52586;SDS011;38480;52.724;6.436;2022-11-15T13:50:29;1.98;;;0.73;;
52586;SDS011;38480;52.724;6.436;2022-11-15T13:52:58;6.90;;;0.93;;
52586;SDS011;38480;52.724;6.436;2022-11-15T13:55:25;2.57;;;0.90;;
52586;SDS011;38480;52.724;6.436;2022-11-15T13:57:53;4.27;;;0.80;;
52586;SDS011;38480;52.724;6.436;2022-11-15T14:02:55;3.80;;;0.70;;
52586;SDS011;38480;52.724;6.436;2022-11-15T14:05:25;4.23;;;0.80;;
52586;SDS011;38480;52.724;6.436;2022-11-15T14:08:02;3.53;;;0.70;;
52586;SDS011;38480;52.724;6.436;2022-11-15T14:10:30;2.33;;;0.87;;
52586;SDS011;38480;52.724;6.436;2022-11-15T14:12:57;3.17;;;0.90;;
52586;SDS011;38480;52.724;6.436;2022-11-15T14:15:33;3.57;;;1.43;;
52586;SDS011;38480;52.724;6.436;2022-11-15T14:17:59;2.80;;;0.90;;
52586;SDS011;38480;52.724;6.436;2022-11-15T14:20:30;4.13;;;0.90;;
52586;SDS011;38480;52.724;6.436;2022-11-15T14:22:58;2.77;;;1.13;;
52586;SDS011;38480;52.724;6.436;2022-11-15T14:25:25;3.03;;;1.10;;
52586;SDS011;38480;52.724;6.436;2022-11-15T14:28:12;3.43;;;0.80;;
52586;SDS011;38480;52.724;6.436;2022-11-15T14:30:38;2.30;;;1.03;;
52586;SDS011;38480;52.724;6.436;2022-11-15T14:35:46;4.23;;;1.40;;
52586;SDS011;38480;52.724;6.436;2022-11-15T14:38:12;3.63;;;1.40;;
52586;SDS011;38480;52.724;6.436;2022-11-15T14:40:39;3.60;;;1.43;;
52586;SDS011;38480;52.724;6.436;2022-11-15T14:43:07;7.60;;;1.97;;
52586;SDS011;38480;52.724;6.436;2022-11-15T14:45:33;5.13;;;1.83;;
52586;SDS011;38480;52.724;6.436;2022-11-15T14:48:00;6.03;;;2.00;;
52586;SDS011;38480;52.724;6.436;2022-11-15T14:50:26;5.53;;;2.43;;
52586;SDS011;38480;52.724;6.436;2022-11-15T14:52:52;3.53;;;2.10;;
52586;SDS011;38480;52.724;6.436;2022-11-15T14:57:45;7.83;;;3.07;;
52586;SDS011;38480;52.724;6.436;2022-11-15T15:00:11;7.47;;;2.90;;
52586;SDS011;38480;52.724;6.436;2022-11-15T15:02:38;6.60;;;3.27;;
52586;SDS011;38480;52.724;6.436;2022-11-15T15:05:13;6.60;;;2.97;;
52586;SDS011;38480;52.724;6.436;2022-11-15T15:07:39;6.80;;;3.33;;
52586;SDS011;38480;52.724;6.436;2022-11-15T15:10:05;5.03;;;3.33;;
52586;SDS011;38480;52.724;6.436;2022-11-15T15:12:31;5.80;;;3.77;;
52586;SDS011;38480;52.724;6.436;2022-11-15T15:14:58;4.97;;;3.40;;
52586;SDS011;38480;52.724;6.436;2022-11-15T15:17:24;4.87;;;3.20;;
52586;SDS011;38480;52.724;6.436;2022-11-15T15:19:50;4.83;;;3.67;;
52586;SDS011;38480;52.724;6.436;2022-11-15T15:22:16;6.33;;;4.30;;
52586;SDS011;38480;52.724;6.436;2022-11-15T15:24:46;8.53;;;5.33;;
52586;SDS011;38480;52.724;6.436;2022-11-15T15:27:12;5.57;;;4.50;;
52586;SDS011;38480;52.724;6.436;2022-11-15T15:29:38;5.63;;;4.13;;
52586;SDS011;38480;52.724;6.436;2022-11-15T15:32:04;6.67;;;4.93;;
52586;SDS011;38480;52.724;6.436;2022-11-15T15:34:31;8.87;;;4.67;;
52586;SDS011;38480;52.724;6.436;2022-11-15T15:39:42;8.23;;;4.63;;
52586;SDS011;38480;52.724;6.436;2022-11-15T15:42:08;10.43;;;4.93;;
52586;SDS011;38480;52.724;6.436;2022-11-15T15:44:34;9.20;;;4.83;;
52586;SDS011;38480;52.724;6.436;2022-11-15T15:47:00;7.10;;;4.83;;
52586;SDS011;38480;52.724;6.436;2022-11-15T15:49:26;8.23;;;5.37;;
52586;SDS011;38480;52.724;6.436;2022-11-15T15:51:52;6.83;;;4.47;;
52586;SDS011;38480;52.724;6.436;2022-11-15T15:54:18;6.53;;;4.67;;
52586;SDS011;38480;52.724;6.436;2022-11-15T15:56:44;7.27;;;4.23;;
52586;SDS011;38480;52.724;6.436;2022-11-15T15:59:10;7.67;;;4.13;;
52586;SDS011;38480;52.724;6.436;2022-11-15T16:01:36;6.43;;;3.73;;
52586;SDS011;38480;52.724;6.436;2022-11-15T16:04:02;5.93;;;3.97;;
52586;SDS011;38480;52.724;6.436;2022-11-15T16:06:32;7.03;;;3.20;;
52586;SDS011;38480;52.724;6.436;2022-11-15T16:08:59;5.17;;;3.40;;
52586;SDS011;38480;52.724;6.436;2022-11-15T16:11:25;6.07;;;2.97;;
52586;SDS011;38480;52.724;6.436;2022-11-15T16:13:51;6.50;;;3.33;;
52586;SDS011;38480;52.724;6.436;2022-11-15T16:16:17;8.13;;;3.27;;
52586;SDS011;38480;52.724;6.436;2022-11-15T16:18:44;5.83;;;2.80;;
52586;SDS011;38480;52.724;6.436;2022-11-15T16:21:10;4.53;;;2.63;;
52586;SDS011;38480;52.724;6.436;2022-11-15T16:23:36;7.00;;;3.37;;
52586;SDS011;38480;52.724;6.436;2022-11-15T16:26:04;4.70;;;2.60;;
52586;SDS011;38480;52.724;6.436;2022-11-15T16:28:35;4.43;;;2.40;;
52586;SDS011;38480;52.724;6.436;2022-11-15T16:31:08;6.07;;;2.43;;
52586;SDS011;38480;52.724;6.436;2022-11-15T16:33:35;3.50;;;2.30;;
52586;SDS011;38480;52.724;6.436;2022-11-15T16:36:02;8.67;;;2.67;;
52586;SDS011;38480;52.724;6.436;2022-11-15T16:38:28;6.33;;;1.90;;